sensor_id;sensor_type;location;lat;lon;timestamp;temperature;humidity
16655;DHT22;8441;51.344;7.022;2022-12-18T00:00:58;-3.00;99.90
16655;DHT22;8441;51.344;7.022;2022-12-18T00:03:27;-3.00;99.90
16655;DHT22;8441;51.344;7.022;2022-12-18T00:05:54;-3.10;99.90
16655;DHT22;8441;51.344;7.022;2022-12-18T00:08:21;-3.10;99.90
16655;DHT22;8441;51.344;7.022;2022-12-18T00:10:48;-3.00;99.90
16655;DHT22;8441;51.344;7.022;2022-12-18T00:13:16;-3.00;99.90
16655;DHT22;8441;51.344;7.022;2022-12-18T00:15:44;-3.00;99.90
16655;DHT22;8441;51.344;7.022;2022-12-18T00:18:11;-2.90;99.90
16655;DHT22;8441;51.344;7.022;2022-12-18T00:20:40;-3.00;99.90
16655;DHT22;8441;51.344;7.022;2022-12-18T00:23:07;-3.10;99.90
16655;DHT22;8441;51.344;7.022;2022-12-18T00:25:35;-3.10;99.90
16655;DHT22;8441;51.344;7.022;2022-12-18T00:28:02;-3.10;99.90
16655;DHT22;8441;51.344;7.022;2022-12-18T00:30:30;-3.10;99.90
16655;DHT22;8441;51.344;7.022;2022-12-18T00:32:57;-3.00;99.90
16655;DHT22;8441;51.344;7.022;2022-12-18T00:35:24;-3.10;99.90
16655;DHT22;8441;51.344;7.022;2022-12-18T00:37:53;-3.10;99.90
16655;DHT22;8441;51.344;7.022;2022-12-18T00:40:20;-3.10;99.90
16655;DHT22;8441;51.344;7.022;2022-12-18T00:42:47;-3.10;99.90
16655;DHT22;8441;51.344;7.022;2022-12-18T00:45:23;-3.00;99.90
16655;DHT22;8441;51.344;7.022;2022-12-18T00:47:50;-2.90;99.90
16655;DHT22;8441;51.344;7.022;2022-12-18T00:50:17;-3.00;99.90
16655;DHT22;8441;51.344;7.022;2022-12-18T00:52:45;-3.20;99.90
16655;DHT22;8441;51.344;7.022;2022-12-18T00:55:14;-3.20;99.90
16655;DHT22;8441;51.344;7.022;2022-12-18T00:57:41;-3.20;99.90
16655;DHT22;8441;51.344;7.022;2022-12-18T01:00:11;-3.20;99.90
16655;DHT22;8441;51.344;7.022;2022-12-18T01:02:39;-3.30;99.90
16655;DHT22;8441;51.344;7.022;2022-12-18T01:05:07;-3.40;99.90
16655;DHT22;8441;51.344;7.022;2022-12-18T01:07:34;-3.20;99.90
16655;DHT22;8441;51.344;7.022;2022-12-18T01:10:02;-3.10;99.90
16655;DHT22;8441;51.344;7.022;2022-12-18T01:12:31;-3.10;99.90
16655;DHT22;8441;51.344;7.022;2022-12-18T01:14:58;-3.10;99.90
16655;DHT22;8441;51.344;7.022;2022-12-18T01:17:25;-3.10;99.90
16655;DHT22;8441;51.344;7.022;2022-12-18T01:19:53;-3.20;99.90
16655;DHT22;8441;51.344;7.022;2022-12-18T01:22:20;-3.00;99.90
16655;DHT22;8441;51.344;7.022;2022-12-18T01:24:47;-2.90;99.90
16655;DHT22;8441;51.344;7.022;2022-12-18T01:27:14;-3.00;99.90
16655;DHT22;8441;51.344;7.022;2022-12-18T01:29:43;-2.90;99.90
16655;DHT22;8441;51.344;7.022;2022-12-18T01:32:10;-2.90;99.90
16655;DHT22;8441;51.344;7.022;2022-12-18T01:34:37;-2.90;99.90
16655;DHT22;8441;51.344;7.022;2022-12-18T01:37:05;-3.00;99.90
16655;DHT22;8441;51.344;7.022;2022-12-18T01:39:32;-3.00;99.90
16655;DHT22;8441;51.344;7.022;2022-12-18T01:42:00;-3.10;99.90
16655;DHT22;8441;51.344;7.022;2022-12-18T01:45:05;-3.10;99.90
16655;DHT22;8441;51.344;7.022;2022-12-18T01:47:36;-3.20;99.90
16655;DHT22;8441;51.344;7.022;2022-12-18T01:50:08;-3.20;99.90
16655;DHT22;8441;51.344;7.022;2022-12-18T01:52:36;-3.20;99.90
16655;DHT22;8441;51.344;7.022;2022-12-18T01:55:05;-3.10;99.90
16655;DHT22;8441;51.344;7.022;2022-12-18T01:57:33;-2.90;99.90
16655;DHT22;8441;51.344;7.022;2022-12-18T02:00:04;-2.80;99.90
16655;DHT22;8441;51.344;7.022;2022-12-18T02:02:33;-2.80;99.90
16655;DHT22;8441;51.344;7.022;2022-12-18T02:05:02;-2.90;99.90
16655;DHT22;8441;51.344;7.022;2022-12-18T02:07:37;-2.90;99.90
16655;DHT22;8441;51.344;7.022;2022-12-18T02:10:12;-2.90;99.90
16655;DHT22;8441;51.344;7.022;2022-12-18T02:12:45;-2.90;99.90
16655;DHT22;8441;51.344;7.022;2022-12-18T02:15:19;-2.90;99.90
16655;DHT22;8441;51.344;7.022;2022-12-18T02:17:54;-2.80;99.90
16655;DHT22;8441;51.344;7.022;2022-12-18T02:20:28;-2.80;99.90
16655;DHT22;8441;51.344;7.022;2022-12-18T02:23:06;-2.70;99.90
16655;DHT22;8441;51.344;7.022;2022-12-18T02:26:06;-2.70;99.90
16655;DHT22;8441;51.344;7.022;2022-12-18T02:28:37;-2.70;99.90
16655;DHT22;8441;51.344;7.022;2022-12-18T02:31:10;-2.60;99.90
16655;DHT22;8441;51.344;7.022;2022-12-18T02:33:39;-2.50;99.90
16655;DHT22;8441;51.344;7.022;2022-12-18T02:36:08;-2.50;99.90
16655;DHT22;8441;51.344;7.022;2022-12-18T02:38:37;-2.70;99.90
16655;DHT22;8441;51.344;7.022;2022-12-18T02:41:07;-2.80;99.90
16655;DHT22;8441;51.344;7.022;2022-12-18T02:43:34;-2.90;99.90
16655;DHT22;8441;51.344;7.022;2022-12-18T02:46:25;-2.90;99.90
16655;DHT22;8441;51.344;7.022;2022-12-18T02:48:57;-2.90;99.90
16655;DHT22;8441;51.344;7.022;2022-12-18T02:51:31;-3.00;99.90
16655;DHT22;8441;51.344;7.022;2022-12-18T02:54:05;-3.10;99.90
16655;DHT22;8441;51.344;7.022;2022-12-18T02:56:38;-3.00;99.90
16655;DHT22;8441;51.344;7.022;2022-12-18T02:59:11;-3.10;99.90
16655;DHT22;8441;51.344;7.022;2022-12-18T03:01:45;-3.10;99.90
16655;DHT22;8441;51.344;7.022;2022-12-18T03:04:20;-3.10;99.90
16655;DHT22;8441;51.344;7.022;2022-12-18T03:06:54;-3.10;99.90
16655;DHT22;8441;51.344;7.022;2022-12-18T03:09:27;-3.00;99.90
16655;DHT22;8441;51.344;7.022;2022-12-18T03:12:02;-3.00;99.90
16655;DHT22;8441;51.344;7.022;2022-12-18T03:14:50;-3.10;99.90
16655;DHT22;8441;51.344;7.022;2022-12-18T03:17:20;-3.30;99.90
16655;DHT22;8441;51.344;7.022;2022-12-18T03:19:49;-3.20;99.90
16655;DHT22;8441;51.344;7.022;2022-12-18T03:22:17;-3.30;99.90
16655;DHT22;8441;51.344;7.022;2022-12-18T03:24:46;-3.40;99.90
16655;DHT22;8441;51.344;7.022;2022-12-18T03:27:18;-3.20;99.90
16655;DHT22;8441;51.344;7.022;2022-12-18T03:29:48;-3.20;99.90
16655;DHT22;8441;51.344;7.022;2022-12-18T03:32:24;-3.30;99.90
16655;DHT22;8441;51.344;7.022;2022-12-18T03:34:53;-3.30;99.90
16655;DHT22;8441;51.344;7.022;2022-12-18T03:37:22;-3.30;99.90
16655;DHT22;8441;51.344;7.022;2022-12-18T03:39:49;-3.30;99.90
16655;DHT22;8441;51.344;7.022;2022-12-18T03:42:23;-3.40;99.90
16655;DHT22;8441;51.344;7.022;2022-12-18T03:44:55;-3.30;99.90
16655;DHT22;8441;51.344;7.022;2022-12-18T03:47:28;-3.40;99.90
16655;DHT22;8441;51.344;7.022;2022-12-18T03:50:01;-3.50;99.90
16655;DHT22;8441;51.344;7.022;2022-12-18T03:52:34;-3.50;99.90
16655;DHT22;8441;51.344;7.022;2022-12-18T03:55:04;-3.50;99.90
16655;DHT22;8441;51.344;7.022;2022-12-18T03:57:33;-3.40;99.90
16655;DHT22;8441;51.344;7.022;2022-12-18T04:00:05;-3.50;99.90
16655;DHT22;8441;51.344;7.022;2022-12-18T04:02:34;-3.60;99.90
16655;DHT22;8441;51.344;7.022;2022-12-18T04:05:04;-3.50;99.90
16655;DHT22;8441;51.344;7.022;2022-12-18T04:07:31;-3.40;99.90
16655;DHT22;8441;51.344;7.022;2022-12-18T04:10:00;-3.40;99.90
16655;DHT22;8441;51.344;7.022;2022-12-18T04:12:29;-3.40;99.90
16655;DHT22;8441;51.344;7.022;2022-12-18T04:14:58;-3.30;99.90
16655;DHT22;8441;51.344;7.022;2022-12-18T04:17:25;-3.30;99.90
16655;DHT22;8441;51.344;7.022;2022-12-18T04:19:53;-3.50;99.90
16655;DHT22;8441;51.344;7.022;2022-12-18T04:22:20;-3.30;99.90
16655;DHT22;8441;51.344;7.022;2022-12-18T04:24:47;-3.40;99.90
16655;DHT22;8441;51.344;7.022;2022-12-18T04:27:14;-3.50;99.90
16655;DHT22;8441;51.344;7.022;2022-12-18T04:29:41;-3.30;99.90
16655;DHT22;8441;51.344;7.022;2022-12-18T04:32:10;-3.30;99.90
16655;DHT22;8441;51.344;7.022;2022-12-18T04:34:37;-3.20;99.90
16655;DHT22;8441;51.344;7.022;2022-12-18T04:37:04;-3.10;99.90
16655;DHT22;8441;51.344;7.022;2022-12-18T04:39:31;-3.20;99.90
16655;DHT22;8441;51.344;7.022;2022-12-18T04:41:59;-3.40;99.90
16655;DHT22;8441;51.344;7.022;2022-12-18T04:44:26;-3.40;99.90
16655;DHT22;8441;51.344;7.022;2022-12-18T04:46:53;-3.40;99.90
16655;DHT22;8441;51.344;7.022;2022-12-18T04:49:23;-3.30;99.90
16655;DHT22;8441;51.344;7.022;2022-12-18T04:51:50;-3.30;99.90
16655;DHT22;8441;51.344;7.022;2022-12-18T04:54:17;-3.40;99.90
16655;DHT22;8441;51.344;7.022;2022-12-18T04:56:44;-3.50;99.90
16655;DHT22;8441;51.344;7.022;2022-12-18T04:59:11;-3.30;99.90
16655;DHT22;8441;51.344;7.022;2022-12-18T05:01:39;-3.00;99.90
16655;DHT22;8441;51.344;7.022;2022-12-18T05:04:06;-3.00;99.90
16655;DHT22;8441;51.344;7.022;2022-12-18T05:06:34;-3.00;99.90
16655;DHT22;8441;51.344;7.022;2022-12-18T05:09:02;-2.90;99.90
16655;DHT22;8441;51.344;7.022;2022-12-18T05:11:29;-3.00;99.90
16655;DHT22;8441;51.344;7.022;2022-12-18T05:13:56;-3.10;99.90
16655;DHT22;8441;51.344;7.022;2022-12-18T05:16:23;-3.00;99.90
16655;DHT22;8441;51.344;7.022;2022-12-18T05:18:50;-2.90;99.90
16655;DHT22;8441;51.344;7.022;2022-12-18T05:21:18;-3.00;99.90
16655;DHT22;8441;51.344;7.022;2022-12-18T05:23:46;-3.10;99.90
16655;DHT22;8441;51.344;7.022;2022-12-18T05:26:15;-3.10;99.90
16655;DHT22;8441;51.344;7.022;2022-12-18T05:28:47;-3.10;99.90
16655;DHT22;8441;51.344;7.022;2022-12-18T05:31:14;-3.00;99.90
16655;DHT22;8441;51.344;7.022;2022-12-18T05:33:41;-2.80;99.90
16655;DHT22;8441;51.344;7.022;2022-12-18T05:36:10;-2.70;99.90
16655;DHT22;8441;51.344;7.022;2022-12-18T05:38:38;-2.90;99.90
16655;DHT22;8441;51.344;7.022;2022-12-18T05:41:08;-2.90;99.90
16655;DHT22;8441;51.344;7.022;2022-12-18T05:43:36;-2.80;99.90
16655;DHT22;8441;51.344;7.022;2022-12-18T05:46:05;-2.70;99.90
16655;DHT22;8441;51.344;7.022;2022-12-18T05:48:32;-2.60;99.90
16655;DHT22;8441;51.344;7.022;2022-12-18T05:51:06;-2.70;99.90
16655;DHT22;8441;51.344;7.022;2022-12-18T05:53:34;-2.80;99.90
16655;DHT22;8441;51.344;7.022;2022-12-18T05:56:02;-2.90;99.90
16655;DHT22;8441;51.344;7.022;2022-12-18T05:58:32;-2.70;99.90
16655;DHT22;8441;51.344;7.022;2022-12-18T06:01:06;-2.70;99.90
16655;DHT22;8441;51.344;7.022;2022-12-18T06:03:34;-2.40;99.90
16655;DHT22;8441;51.344;7.022;2022-12-18T06:06:01;-2.50;99.90
16655;DHT22;8441;51.344;7.022;2022-12-18T06:08:30;-2.70;99.90
16655;DHT22;8441;51.344;7.022;2022-12-18T06:10:57;-2.70;99.90
16655;DHT22;8441;51.344;7.022;2022-12-18T06:13:24;-2.70;99.90
16655;DHT22;8441;51.344;7.022;2022-12-18T06:15:53;-3.00;99.90
16655;DHT22;8441;51.344;7.022;2022-12-18T06:18:20;-3.10;99.90
16655;DHT22;8441;51.344;7.022;2022-12-18T06:20:54;-3.10;99.90
16655;DHT22;8441;51.344;7.022;2022-12-18T06:23:22;-3.20;99.90
16655;DHT22;8441;51.344;7.022;2022-12-18T06:25:50;-3.30;99.90
16655;DHT22;8441;51.344;7.022;2022-12-18T06:28:17;-3.30;99.90
16655;DHT22;8441;51.344;7.022;2022-12-18T06:30:44;-3.10;99.90
16655;DHT22;8441;51.344;7.022;2022-12-18T06:33:13;-3.00;99.90
16655;DHT22;8441;51.344;7.022;2022-12-18T06:35:40;-3.00;99.90
16655;DHT22;8441;51.344;7.022;2022-12-18T06:38:08;-2.80;99.90
16655;DHT22;8441;51.344;7.022;2022-12-18T06:40:37;-2.90;99.90
16655;DHT22;8441;51.344;7.022;2022-12-18T06:43:05;-2.80;99.90
16655;DHT22;8441;51.344;7.022;2022-12-18T06:45:33;-2.90;99.90
16655;DHT22;8441;51.344;7.022;2022-12-18T06:48:00;-3.10;99.90
16655;DHT22;8441;51.344;7.022;2022-12-18T06:50:29;-3.10;99.90
16655;DHT22;8441;51.344;7.022;2022-12-18T06:52:56;-3.00;99.90
16655;DHT22;8441;51.344;7.022;2022-12-18T06:55:24;-2.80;99.90
16655;DHT22;8441;51.344;7.022;2022-12-18T06:57:51;-2.80;99.90
16655;DHT22;8441;51.344;7.022;2022-12-18T07:00:18;-2.80;99.90
16655;DHT22;8441;51.344;7.022;2022-12-18T07:02:45;-2.90;99.90
16655;DHT22;8441;51.344;7.022;2022-12-18T07:05:12;-2.90;99.90
16655;DHT22;8441;51.344;7.022;2022-12-18T07:07:41;-2.80;99.90
16655;DHT22;8441;51.344;7.022;2022-12-18T07:10:09;-3.00;99.90
16655;DHT22;8441;51.344;7.022;2022-12-18T07:12:36;-2.80;99.90
16655;DHT22;8441;51.344;7.022;2022-12-18T07:15:04;-2.80;99.90
16655;DHT22;8441;51.344;7.022;2022-12-18T07:17:31;-2.90;99.90
16655;DHT22;8441;51.344;7.022;2022-12-18T07:19:59;-2.80;99.90
16655;DHT22;8441;51.344;7.022;2022-12-18T07:22:26;-2.70;99.90
16655;DHT22;8441;51.344;7.022;2022-12-18T07:24:55;-2.40;99.90
16655;DHT22;8441;51.344;7.022;2022-12-18T07:27:22;-2.40;99.90
16655;DHT22;8441;51.344;7.022;2022-12-18T07:29:49;-2.40;99.90
16655;DHT22;8441;51.344;7.022;2022-12-18T07:32:17;-2.30;99.90
16655;DHT22;8441;51.344;7.022;2022-12-18T07:34:44;-2.20;99.90
16655;DHT22;8441;51.344;7.022;2022-12-18T07:37:11;-2.20;99.90
16655;DHT22;8441;51.344;7.022;2022-12-18T07:39:38;-1.90;99.90
16655;DHT22;8441;51.344;7.022;2022-12-18T07:42:07;-1.70;99.90
16655;DHT22;8441;51.344;7.022;2022-12-18T07:44:51;-1.70;99.90
16655;DHT22;8441;51.344;7.022;2022-12-18T07:47:19;-1.90;99.90
16655;DHT22;8441;51.344;7.022;2022-12-18T07:49:46;-1.80;99.90
16655;DHT22;8441;51.344;7.022;2022-12-18T07:52:13;-1.90;99.90
16655;DHT22;8441;51.344;7.022;2022-12-18T07:54:40;-2.00;99.90
16655;DHT22;8441;51.344;7.022;2022-12-18T07:57:09;-2.00;99.90
16655;DHT22;8441;51.344;7.022;2022-12-18T07:59:37;-2.00;99.90
16655;DHT22;8441;51.344;7.022;2022-12-18T08:02:04;-1.90;99.90
16655;DHT22;8441;51.344;7.022;2022-12-18T08:04:31;-1.80;99.90
16655;DHT22;8441;51.344;7.022;2022-12-18T08:06:58;-1.60;99.90
16655;DHT22;8441;51.344;7.022;2022-12-18T08:09:25;-1.60;99.90
16655;DHT22;8441;51.344;7.022;2022-12-18T08:11:53;-1.70;99.90
16655;DHT22;8441;51.344;7.022;2022-12-18T08:14:21;-1.80;99.90
16655;DHT22;8441;51.344;7.022;2022-12-18T08:16:48;-1.70;99.90
16655;DHT22;8441;51.344;7.022;2022-12-18T08:19:16;-1.70;99.90
16655;DHT22;8441;51.344;7.022;2022-12-18T08:21:43;-1.60;99.90
16655;DHT22;8441;51.344;7.022;2022-12-18T08:24:10;-1.50;99.90
16655;DHT22;8441;51.344;7.022;2022-12-18T08:26:37;-1.40;99.90
16655;DHT22;8441;51.344;7.022;2022-12-18T08:29:05;-1.40;99.90
16655;DHT22;8441;51.344;7.022;2022-12-18T08:31:33;-1.40;99.90
16655;DHT22;8441;51.344;7.022;2022-12-18T08:34:01;-1.30;99.90
16655;DHT22;8441;51.344;7.022;2022-12-18T08:36:28;-1.30;99.90
16655;DHT22;8441;51.344;7.022;2022-12-18T08:38:56;-1.30;99.90
16655;DHT22;8441;51.344;7.022;2022-12-18T08:41:23;-1.30;99.90
16655;DHT22;8441;51.344;7.022;2022-12-18T08:43:50;-1.20;99.90
16655;DHT22;8441;51.344;7.022;2022-12-18T08:46:38;-1.30;99.90
16655;DHT22;8441;51.344;7.022;2022-12-18T08:49:07;-1.30;99.90
16655;DHT22;8441;51.344;7.022;2022-12-18T08:51:35;-1.00;99.90
16655;DHT22;8441;51.344;7.022;2022-12-18T08:54:03;-0.90;99.90
16655;DHT22;8441;51.344;7.022;2022-12-18T08:56:30;-1.00;99.90
16655;DHT22;8441;51.344;7.022;2022-12-18T08:58:58;-1.00;99.90
16655;DHT22;8441;51.344;7.022;2022-12-18T09:01:26;-0.80;99.90
16655;DHT22;8441;51.344;7.022;2022-12-18T09:03:54;-0.60;99.90
16655;DHT22;8441;51.344;7.022;2022-12-18T09:06:22;-0.60;99.90
16655;DHT22;8441;51.344;7.022;2022-12-18T09:08:50;-0.50;99.90
16655;DHT22;8441;51.344;7.022;2022-12-18T09:11:20;-0.50;99.90
16655;DHT22;8441;51.344;7.022;2022-12-18T09:13:48;-0.50;99.90
16655;DHT22;8441;51.344;7.022;2022-12-18T09:16:16;-0.50;99.90
16655;DHT22;8441;51.344;7.022;2022-12-18T09:18:44;-0.20;99.90
16655;DHT22;8441;51.344;7.022;2022-12-18T09:21:14;-0.20;99.90
16655;DHT22;8441;51.344;7.022;2022-12-18T09:23:42;-0.10;99.90
16655;DHT22;8441;51.344;7.022;2022-12-18T09:26:09;-0.20;99.90
16655;DHT22;8441;51.344;7.022;2022-12-18T09:28:36;-0.20;99.90
16655;DHT22;8441;51.344;7.022;2022-12-18T09:31:05;-0.10;99.90
16655;DHT22;8441;51.344;7.022;2022-12-18T09:33:33;-0.10;99.90
16655;DHT22;8441;51.344;7.022;2022-12-18T09:36:01;-0.10;99.90
16655;DHT22;8441;51.344;7.022;2022-12-18T09:38:31;-0.10;99.90
16655;DHT22;8441;51.344;7.022;2022-12-18T09:41:00;-0.10;99.90
16655;DHT22;8441;51.344;7.022;2022-12-18T09:43:35;0.20;99.90
16655;DHT22;8441;51.344;7.022;2022-12-18T09:46:06;0.30;99.90
16655;DHT22;8441;51.344;7.022;2022-12-18T09:48:38;0.30;99.90
16655;DHT22;8441;51.344;7.022;2022-12-18T09:51:12;0.40;99.90
16655;DHT22;8441;51.344;7.022;2022-12-18T09:53:47;0.40;99.90
16655;DHT22;8441;51.344;7.022;2022-12-18T09:56:19;0.50;99.90
16655;DHT22;8441;51.344;7.022;2022-12-18T09:58:52;0.50;99.90
16655;DHT22;8441;51.344;7.022;2022-12-18T10:01:22;0.60;99.90
16655;DHT22;8441;51.344;7.022;2022-12-18T10:03:50;0.60;99.90
16655;DHT22;8441;51.344;7.022;2022-12-18T10:06:21;0.70;99.90
16655;DHT22;8441;51.344;7.022;2022-12-18T10:08:56;0.70;99.90
16655;DHT22;8441;51.344;7.022;2022-12-18T10:11:34;0.90;99.90
16655;DHT22;8441;51.344;7.022;2022-12-18T10:14:13;1.00;99.90
16655;DHT22;8441;51.344;7.022;2022-12-18T10:16:56;1.00;99.90
16655;DHT22;8441;51.344;7.022;2022-12-18T10:19:35;1.10;99.90
16655;DHT22;8441;51.344;7.022;2022-12-18T10:22:11;1.10;99.90
16655;DHT22;8441;51.344;7.022;2022-12-18T10:24:48;1.20;99.90
16655;DHT22;8441;51.344;7.022;2022-12-18T10:27:21;1.20;99.90
16655;DHT22;8441;51.344;7.022;2022-12-18T10:29:49;1.30;99.90
16655;DHT22;8441;51.344;7.022;2022-12-18T10:32:19;1.30;99.90
16655;DHT22;8441;51.344;7.022;2022-12-18T10:34:48;1.40;99.90
16655;DHT22;8441;51.344;7.022;2022-12-18T10:37:17;1.50;99.90
16655;DHT22;8441;51.344;7.022;2022-12-18T10:39:47;1.60;99.90
16655;DHT22;8441;51.344;7.022;2022-12-18T10:42:31;1.60;99.90
16655;DHT22;8441;51.344;7.022;2022-12-18T10:45:02;1.60;99.90
16655;DHT22;8441;51.344;7.022;2022-12-18T10:47:30;1.70;99.90
16655;DHT22;8441;51.344;7.022;2022-12-18T10:49:57;1.70;99.90
16655;DHT22;8441;51.344;7.022;2022-12-18T10:52:25;1.80;99.90
16655;DHT22;8441;51.344;7.022;2022-12-18T10:54:58;1.90;99.90
16655;DHT22;8441;51.344;7.022;2022-12-18T10:57:33;1.90;99.90
16655;DHT22;8441;51.344;7.022;2022-12-18T11:00:24;2.00;99.90
16655;DHT22;8441;51.344;7.022;2022-12-18T11:02:52;2.00;99.90
16655;DHT22;8441;51.344;7.022;2022-12-18T11:05:28;2.00;99.90
16655;DHT22;8441;51.344;7.022;2022-12-18T11:07:57;2.00;99.90
16655;DHT22;8441;51.344;7.022;2022-12-18T11:10:30;2.00;99.90
16655;DHT22;8441;51.344;7.022;2022-12-18T11:13:14;2.00;99.90
16655;DHT22;8441;51.344;7.022;2022-12-18T11:15:43;2.00;99.90
16655;DHT22;8441;51.344;7.022;2022-12-18T11:18:17;2.10;99.90
16655;DHT22;8441;51.344;7.022;2022-12-18T11:20:52;2.10;99.90
16655;DHT22;8441;51.344;7.022;2022-12-18T11:23:21;2.20;99.90
16655;DHT22;8441;51.344;7.022;2022-12-18T11:26:08;2.30;99.90
16655;DHT22;8441;51.344;7.022;2022-12-18T11:28:37;2.40;99.90
16655;DHT22;8441;51.344;7.022;2022-12-18T11:31:16;2.40;99.90
16655;DHT22;8441;51.344;7.022;2022-12-18T11:33:47;2.50;99.90
16655;DHT22;8441;51.344;7.022;2022-12-18T11:36:16;2.50;99.90
16655;DHT22;8441;51.344;7.022;2022-12-18T11:38:45;2.50;99.90
16655;DHT22;8441;51.344;7.022;2022-12-18T11:41:21;2.50;99.90
16655;DHT22;8441;51.344;7.022;2022-12-18T11:44:11;2.50;99.90
16655;DHT22;8441;51.344;7.022;2022-12-18T11:46:45;2.50;99.90
16655;DHT22;8441;51.344;7.022;2022-12-18T11:49:18;2.50;99.90
16655;DHT22;8441;51.344;7.022;2022-12-18T11:51:50;2.50;99.90
16655;DHT22;8441;51.344;7.022;2022-12-18T11:54:18;2.50;99.90
16655;DHT22;8441;51.344;7.022;2022-12-18T11:56:49;2.50;99.90
16655;DHT22;8441;51.344;7.022;2022-12-18T11:59:26;2.50;99.90
16655;DHT22;8441;51.344;7.022;2022-12-18T12:01:59;2.50;99.90
16655;DHT22;8441;51.344;7.022;2022-12-18T12:04:51;2.60;99.90
16655;DHT22;8441;51.344;7.022;2022-12-18T12:07:27;2.60;99.90
16655;DHT22;8441;51.344;7.022;2022-12-18T12:10:09;2.60;99.90
16655;DHT22;8441;51.344;7.022;2022-12-18T12:12:53;2.60;99.90
16655;DHT22;8441;51.344;7.022;2022-12-18T12:15:33;2.60;99.90
16655;DHT22;8441;51.344;7.022;2022-12-18T12:18:11;2.50;99.90
16655;DHT22;8441;51.344;7.022;2022-12-18T12:20:47;2.50;99.90
16655;DHT22;8441;51.344;7.022;2022-12-18T12:23:23;2.50;99.90
16655;DHT22;8441;51.344;7.022;2022-12-18T12:25:58;2.40;99.90
16655;DHT22;8441;51.344;7.022;2022-12-18T12:28:44;2.50;99.90
16655;DHT22;8441;51.344;7.022;2022-12-18T12:31:21;2.40;99.90
16655;DHT22;8441;51.344;7.022;2022-12-18T12:33:56;2.30;99.90
16655;DHT22;8441;51.344;7.022;2022-12-18T12:36:33;2.30;99.90
16655;DHT22;8441;51.344;7.022;2022-12-18T12:39:07;2.30;99.90
16655;DHT22;8441;51.344;7.022;2022-12-18T12:41:36;2.20;99.90
16655;DHT22;8441;51.344;7.022;2022-12-18T12:44:30;2.10;99.90
16655;DHT22;8441;51.344;7.022;2022-12-18T12:47:01;2.10;99.90
16655;DHT22;8441;51.344;7.022;2022-12-18T12:49:33;2.10;99.90
16655;DHT22;8441;51.344;7.022;2022-12-18T12:52:04;2.00;99.90
16655;DHT22;8441;51.344;7.022;2022-12-18T12:54:32;2.00;99.90
16655;DHT22;8441;51.344;7.022;2022-12-18T12:57:06;2.00;99.90
16655;DHT22;8441;51.344;7.022;2022-12-18T12:59:41;1.90;99.90
16655;DHT22;8441;51.344;7.022;2022-12-18T13:02:22;1.90;99.90
16655;DHT22;8441;51.344;7.022;2022-12-18T13:04:56;1.90;99.90
16655;DHT22;8441;51.344;7.022;2022-12-18T13:07:27;1.80;99.90
16655;DHT22;8441;51.344;7.022;2022-12-18T13:10:33;1.80;99.90
16655;DHT22;8441;51.344;7.022;2022-12-18T13:13:02;1.80;99.90
16655;DHT22;8441;51.344;7.022;2022-12-18T13:15:38;1.70;99.90
16655;DHT22;8441;51.344;7.022;2022-12-18T13:18:16;1.70;99.90
16655;DHT22;8441;51.344;7.022;2022-12-18T13:20:45;1.70;99.90
16655;DHT22;8441;51.344;7.022;2022-12-18T13:23:34;1.70;99.90
16655;DHT22;8441;51.344;7.022;2022-12-18T13:26:29;1.70;99.90
16655;DHT22;8441;51.344;7.022;2022-12-18T13:28:58;1.70;99.90
16655;DHT22;8441;51.344;7.022;2022-12-18T13:34:35;1.70;99.90
16655;DHT22;8441;51.344;7.022;2022-12-18T13:37:40;1.70;99.90
16655;DHT22;8441;51.344;7.022;2022-12-18T13:43:34;1.60;99.90
16655;DHT22;8441;51.344;7.022;2022-12-18T13:46:18;1.60;99.90
16655;DHT22;8441;51.344;7.022;2022-12-18T13:48:51;1.60;99.90
16655;DHT22;8441;51.344;7.022;2022-12-18T13:51:21;1.50;99.90
16655;DHT22;8441;51.344;7.022;2022-12-18T13:53:51;1.50;99.90
16655;DHT22;8441;51.344;7.022;2022-12-18T13:56:23;1.50;99.90
16655;DHT22;8441;51.344;7.022;2022-12-18T13:59:12;1.50;99.90
16655;DHT22;8441;51.344;7.022;2022-12-18T14:01:48;1.40;99.90
16655;DHT22;8441;51.344;7.022;2022-12-18T14:04:20;1.40;99.90
16655;DHT22;8441;51.344;7.022;2022-12-18T14:06:51;1.40;99.90
16655;DHT22;8441;51.344;7.022;2022-12-18T14:09:23;1.40;99.90
16655;DHT22;8441;51.344;7.022;2022-12-18T14:11:52;1.40;99.90
16655;DHT22;8441;51.344;7.022;2022-12-18T14:14:42;1.40;99.90
16655;DHT22;8441;51.344;7.022;2022-12-18T14:17:11;1.30;99.90
16655;DHT22;8441;51.344;7.022;2022-12-18T14:19:42;1.30;99.90
16655;DHT22;8441;51.344;7.022;2022-12-18T14:22:16;1.30;99.90
16655;DHT22;8441;51.344;7.022;2022-12-18T14:24:44;1.30;99.90
16655;DHT22;8441;51.344;7.022;2022-12-18T14:27:23;1.30;99.90
16655;DHT22;8441;51.344;7.022;2022-12-18T14:29:51;1.30;99.90
16655;DHT22;8441;51.344;7.022;2022-12-18T14:32:20;1.30;99.90
16655;DHT22;8441;51.344;7.022;2022-12-18T14:34:49;1.30;99.90
16655;DHT22;8441;51.344;7.022;2022-12-18T14:37:22;1.30;99.90
16655;DHT22;8441;51.344;7.022;2022-12-18T14:39:57;1.30;99.90
16655;DHT22;8441;51.344;7.022;2022-12-18T14:42:26;1.30;99.90
16655;DHT22;8441;51.344;7.022;2022-12-18T14:47:54;1.30;99.90
16655;DHT22;8441;51.344;7.022;2022-12-18T14:50:22;1.20;99.90
16655;DHT22;8441;51.344;7.022;2022-12-18T14:52:51;1.20;99.90
16655;DHT22;8441;51.344;7.022;2022-12-18T14:55:19;1.20;99.90
16655;DHT22;8441;51.344;7.022;2022-12-18T14:57:50;1.20;99.90
16655;DHT22;8441;51.344;7.022;2022-12-18T15:00:20;1.10;99.90
16655;DHT22;8441;51.344;7.022;2022-12-18T15:02:49;1.10;99.90
16655;DHT22;8441;51.344;7.022;2022-12-18T15:05:19;1.10;99.90
16655;DHT22;8441;51.344;7.022;2022-12-18T15:07:47;1.10;99.90
16655;DHT22;8441;51.344;7.022;2022-12-18T15:10:18;1.00;99.90
16655;DHT22;8441;51.344;7.022;2022-12-18T15:12:47;1.00;99.90
16655;DHT22;8441;51.344;7.022;2022-12-18T15:15:45;0.90;99.90
16655;DHT22;8441;51.344;7.022;2022-12-18T15:18:15;0.90;99.90
16655;DHT22;8441;51.344;7.022;2022-12-18T15:20:44;0.90;99.90
16655;DHT22;8441;51.344;7.022;2022-12-18T15:23:16;0.90;99.90
16655;DHT22;8441;51.344;7.022;2022-12-18T15:25:47;0.90;99.90
16655;DHT22;8441;51.344;7.022;2022-12-18T15:28:25;0.90;99.90
16655;DHT22;8441;51.344;7.022;2022-12-18T15:31:20;0.80;99.90
16655;DHT22;8441;51.344;7.022;2022-12-18T15:34:05;0.80;99.90
16655;DHT22;8441;51.344;7.022;2022-12-18T15:36:36;0.80;99.90
16655;DHT22;8441;51.344;7.022;2022-12-18T15:39:06;0.80;99.90
16655;DHT22;8441;51.344;7.022;2022-12-18T15:41:35;0.80;99.90
16655;DHT22;8441;51.344;7.022;2022-12-18T15:44:15;0.80;99.90
16655;DHT22;8441;51.344;7.022;2022-12-18T15:46:46;0.80;99.90
16655;DHT22;8441;51.344;7.022;2022-12-18T15:49:13;0.80;99.90
16655;DHT22;8441;51.344;7.022;2022-12-18T15:51:41;0.80;99.90
16655;DHT22;8441;51.344;7.022;2022-12-18T15:54:13;0.70;99.90
16655;DHT22;8441;51.344;7.022;2022-12-18T15:56:43;0.70;99.90
16655;DHT22;8441;51.344;7.022;2022-12-18T15:59:36;0.70;99.90
16655;DHT22;8441;51.344;7.022;2022-12-18T16:02:14;0.80;99.90
16655;DHT22;8441;51.344;7.022;2022-12-18T16:04:42;0.70;99.90
16655;DHT22;8441;51.344;7.022;2022-12-18T16:07:11;0.70;99.90
16655;DHT22;8441;51.344;7.022;2022-12-18T16:09:38;0.70;99.90
16655;DHT22;8441;51.344;7.022;2022-12-18T16:12:14;0.70;99.90
16655;DHT22;8441;51.344;7.022;2022-12-18T16:14:42;0.70;99.90
16655;DHT22;8441;51.344;7.022;2022-12-18T16:17:10;0.70;99.90
16655;DHT22;8441;51.344;7.022;2022-12-18T16:19:38;0.70;99.90
16655;DHT22;8441;51.344;7.022;2022-12-18T16:22:08;0.60;99.90
16655;DHT22;8441;51.344;7.022;2022-12-18T16:24:40;0.60;99.90
16655;DHT22;8441;51.344;7.022;2022-12-18T16:27:09;0.60;99.90